sensor_id;sensor_type;location;lat;lon;timestamp;pressure;altitude;pressure_sealevel;temperature;humidity
11190;BME280;5651;50.926;4.718;2022-10-16T00:01:22;100877.19;;;13.88;96.45
11190;BME280;5651;50.926;4.718;2022-10-16T00:03:53;100882.41;;;13.89;95.65
11190;BME280;5651;50.926;4.718;2022-10-16T00:06:20;100888.50;;;13.91;96.71
11190;BME280;5651;50.926;4.718;2022-10-16T00:08:46;100884.03;;;13.97;94.57
11190;BME280;5651;50.926;4.718;2022-10-16T00:11:27;100889.25;;;13.97;95.08
11190;BME280;5651;50.926;4.718;2022-10-16T00:13:57;100885.63;;;14.04;94.66
11190;BME280;5651;50.926;4.718;2022-10-16T00:16:24;100885.94;;;13.87;97.57
11190;BME280;5651;50.926;4.718;2022-10-16T00:18:50;100890.34;;;13.85;97.15
11190;BME280;5651;50.926;4.718;2022-10-16T00:21:19;100883.31;;;13.87;95.98
11190;BME280;5651;50.926;4.718;2022-10-16T00:23:53;100886.03;;;13.82;97.16
11190;BME280;5651;50.926;4.718;2022-10-16T00:26:21;100892.09;;;13.84;96.52
11190;BME280;5651;50.926;4.718;2022-10-16T00:28:51;100900.81;;;13.85;96.65
11190;BME280;5651;50.926;4.718;2022-10-16T00:31:19;100900.88;;;13.82;97.17
11190;BME280;5651;50.926;4.718;2022-10-16T00:33:45;100889.56;;;13.79;97.40
11190;BME280;5651;50.926;4.718;2022-10-16T00:36:13;100900.13;;;13.75;97.41
11190;BME280;5651;50.926;4.718;2022-10-16T00:38:39;100905.41;;;13.73;97.52
11190;BME280;5651;50.926;4.718;2022-10-16T00:41:07;100901.09;;;13.69;97.85
11190;BME280;5651;50.926;4.718;2022-10-16T00:43:36;100898.41;;;13.72;96.50
11190;BME280;5651;50.926;4.718;2022-10-16T00:46:10;100894.03;;;13.74;95.26
11190;BME280;5651;50.926;4.718;2022-10-16T00:48:38;100897.63;;;13.67;97.47
11190;BME280;5651;50.926;4.718;2022-10-16T00:51:06;100899.34;;;13.70;96.62
11190;BME280;5651;50.926;4.718;2022-10-16T00:53:33;100896.72;;;13.70;96.51
11190;BME280;5651;50.926;4.718;2022-10-16T00:56:00;100906.31;;;13.69;96.54
11190;BME280;5651;50.926;4.718;2022-10-16T00:58:26;100900.19;;;13.70;96.85
11190;BME280;5651;50.926;4.718;2022-10-16T01:00:52;100898.56;;;13.63;98.41
11190;BME280;5651;50.926;4.718;2022-10-16T01:03:31;100905.50;;;13.66;97.16
11190;BME280;5651;50.926;4.718;2022-10-16T01:11:24;100922.09;;;13.65;96.37
11190;BME280;5651;50.926;4.718;2022-10-16T01:13:58;100913.50;;;13.56;98.27
11190;BME280;5651;50.926;4.718;2022-10-16T01:16:30;100908.38;;;13.52;98.30
11190;BME280;5651;50.926;4.718;2022-10-16T01:21:32;100910.84;;;13.59;97.86
11190;BME280;5651;50.926;4.718;2022-10-16T01:29:42;100913.63;;;13.49;98.75
11190;BME280;5651;50.926;4.718;2022-10-16T01:34:50;100905.75;;;13.52;99.56
11190;BME280;5651;50.926;4.718;2022-10-16T01:38:06;100913.63;;;13.49;99.27
11190;BME280;5651;50.926;4.718;2022-10-16T01:40:25;100916.16;;;13.55;96.80
11190;BME280;5651;50.926;4.718;2022-10-16T01:42:56;100909.34;;;13.43;98.81
11190;BME280;5651;50.926;4.718;2022-10-16T01:45:24;100909.28;;;13.47;97.35
11190;BME280;5651;50.926;4.718;2022-10-16T01:47:52;100898.78;;;13.49;96.41
11190;BME280;5651;50.926;4.718;2022-10-16T01:50:20;100905.81;;;13.45;96.67
11190;BME280;5651;50.926;4.718;2022-10-16T01:52:49;100896.34;;;13.40;97.14
11190;BME280;5651;50.926;4.718;2022-10-16T01:55:27;100905.94;;;13.35;98.87
11190;BME280;5651;50.926;4.718;2022-10-16T01:57:55;100907.75;;;13.32;99.67
11190;BME280;5651;50.926;4.718;2022-10-16T02:00:23;100909.44;;;13.34;99.05
11190;BME280;5651;50.926;4.718;2022-10-16T02:02:53;100911.16;;;13.38;98.41
11190;BME280;5651;50.926;4.718;2022-10-16T02:05:52;100913.81;;;13.36;98.18
11190;BME280;5651;50.926;4.718;2022-10-16T02:08:21;100920.75;;;13.40;96.74
11190;BME280;5651;50.926;4.718;2022-10-16T02:10:48;100924.22;;;13.41;96.63
11190;BME280;5651;50.926;4.718;2022-10-16T02:13:19;100914.69;;;13.35;96.95
11190;BME280;5651;50.926;4.718;2022-10-16T02:15:47;100916.53;;;13.28;98.16
11190;BME280;5651;50.926;4.718;2022-10-16T02:18:13;100917.41;;;13.27;99.62
11190;BME280;5651;50.926;4.718;2022-10-16T02:20:53;100922.63;;;13.29;100.00
11190;BME280;5651;50.926;4.718;2022-10-16T02:23:29;100920.03;;;13.27;100.00
11190;BME280;5651;50.926;4.718;2022-10-16T02:25:59;100924.41;;;13.27;99.74
11190;BME280;5651;50.926;4.718;2022-10-16T02:28:45;100915.53;;;13.36;97.95
11190;BME280;5651;50.926;4.718;2022-10-16T02:31:16;100917.44;;;13.26;100.00
11190;BME280;5651;50.926;4.718;2022-10-16T02:33:44;100926.13;;;13.26;100.00
11190;BME280;5651;50.926;4.718;2022-10-16T02:36:11;100916.53;;;13.28;100.00
11190;BME280;5651;50.926;4.718;2022-10-16T02:38:39;100922.63;;;13.29;100.00
11190;BME280;5651;50.926;4.718;2022-10-16T02:41:05;100928.56;;;13.43;99.48
11190;BME280;5651;50.926;4.718;2022-10-16T02:43:31;100925.97;;;13.37;100.00
11190;BME280;5651;50.926;4.718;2022-10-16T02:45:59;100929.44;;;13.42;99.40
11190;BME280;5651;50.926;4.718;2022-10-16T02:48:25;100925.16;;;13.35;99.74
11190;BME280;5651;50.926;4.718;2022-10-16T02:50:51;100932.13;;;13.35;100.00
11190;BME280;5651;50.926;4.718;2022-10-16T02:53:16;100931.25;;;13.36;99.50
11190;BME280;5651;50.926;4.718;2022-10-16T02:55:42;100935.59;;;13.37;100.00
11190;BME280;5651;50.926;4.718;2022-10-16T02:58:08;100931.31;;;13.31;100.00
11190;BME280;5651;50.926;4.718;2022-10-16T03:00:34;100928.69;;;13.32;99.44
11190;BME280;5651;50.926;4.718;2022-10-16T03:02:59;100947.81;;;13.38;100.00
11190;BME280;5651;50.926;4.718;2022-10-16T03:05:25;100934.81;;;13.30;100.00
11190;BME280;5651;50.926;4.718;2022-10-16T03:07:51;100946.06;;;13.37;100.00
11190;BME280;5651;50.926;4.718;2022-10-16T03:10:18;100952.97;;;13.44;99.41
11190;BME280;5651;50.926;4.718;2022-10-16T03:12:44;100934.75;;;13.36;100.00
11190;BME280;5651;50.926;4.718;2022-10-16T03:15:10;100941.75;;;13.34;100.00
11190;BME280;5651;50.926;4.718;2022-10-16T03:17:36;100956.41;;;13.47;99.04
11190;BME280;5651;50.926;4.718;2022-10-16T03:20:02;100966.09;;;13.42;100.00
11190;BME280;5651;50.926;4.718;2022-10-16T03:22:28;100970.31;;;13.51;98.51
11190;BME280;5651;50.926;4.718;2022-10-16T03:24:54;100958.16;;;13.49;99.28
11190;BME280;5651;50.926;4.718;2022-10-16T03:27:19;100964.28;;;13.44;100.00
11190;BME280;5651;50.926;4.718;2022-10-16T03:29:45;100971.31;;;13.42;99.56
11190;BME280;5651;50.926;4.718;2022-10-16T03:32:11;100972.19;;;13.43;99.66
11190;BME280;5651;50.926;4.718;2022-10-16T03:34:37;100976.63;;;13.35;100.00
11190;BME280;5651;50.926;4.718;2022-10-16T03:37:02;100966.09;;;13.41;100.00
11190;BME280;5651;50.926;4.718;2022-10-16T03:39:28;100973.16;;;13.34;100.00
11190;BME280;5651;50.926;4.718;2022-10-16T03:41:54;100972.28;;;13.35;100.00
11190;BME280;5651;50.926;4.718;2022-10-16T03:44:19;100971.31;;;13.41;100.00
11190;BME280;5651;50.926;4.718;2022-10-16T03:46:45;100966.94;;;13.43;100.00
11190;BME280;5651;50.926;4.718;2022-10-16T03:49:11;100967.00;;;13.40;100.00
11190;BME280;5651;50.926;4.718;2022-10-16T03:51:37;100955.72;;;13.33;100.00
11190;BME280;5651;50.926;4.718;2022-10-16T03:54:02;100954.00;;;13.30;100.00
11190;BME280;5651;50.926;4.718;2022-10-16T03:56:28;100970.63;;;13.26;100.00
11190;BME280;5651;50.926;4.718;2022-10-16T03:58:54;100967.13;;;13.29;100.00
11190;BME280;5651;50.926;4.718;2022-10-16T04:01:20;100958.28;;;13.38;100.00
11190;BME280;5651;50.926;4.718;2022-10-16T04:03:45;100967.00;;;13.40;100.00
11190;BME280;5651;50.926;4.718;2022-10-16T04:06:11;100965.28;;;13.39;100.00
11190;BME280;5651;50.926;4.718;2022-10-16T04:08:37;100963.47;;;13.41;100.00
11190;BME280;5651;50.926;4.718;2022-10-16T04:11:04;100977.38;;;13.44;100.00
11190;BME280;5651;50.926;4.718;2022-10-16T04:13:30;100971.22;;;13.49;100.00
11190;BME280;5651;50.926;4.718;2022-10-16T04:15:56;100980.84;;;13.48;100.00
11190;BME280;5651;50.926;4.718;2022-10-16T04:18:22;100983.41;;;13.51;100.00
11190;BME280;5651;50.926;4.718;2022-10-16T04:20:47;100984.25;;;13.53;100.00
11190;BME280;5651;50.926;4.718;2022-10-16T04:23:13;100999.97;;;13.53;100.00
11190;BME280;5651;50.926;4.718;2022-10-16T04:25:39;101008.72;;;13.51;100.00
11190;BME280;5651;50.926;4.718;2022-10-16T04:28:04;101002.69;;;13.47;100.00
11190;BME280;5651;50.926;4.718;2022-10-16T04:30:30;101015.63;;;13.56;100.00
11190;BME280;5651;50.926;4.718;2022-10-16T04:32:56;101006.09;;;13.52;100.00
11190;BME280;5651;50.926;4.718;2022-10-16T04:35:22;101004.34;;;13.51;100.00
11190;BME280;5651;50.926;4.718;2022-10-16T04:37:48;101000.00;;;13.50;100.00
11190;BME280;5651;50.926;4.718;2022-10-16T04:40:14;101004.25;;;13.59;100.00
11190;BME280;5651;50.926;4.718;2022-10-16T04:42:39;101008.69;;;13.52;100.00
11190;BME280;5651;50.926;4.718;2022-10-16T04:45:06;101014.72;;;13.57;100.00
11190;BME280;5651;50.926;4.718;2022-10-16T04:47:33;101015.44;;;13.69;100.00
11190;BME280;5651;50.926;4.718;2022-10-16T04:49:59;101020.84;;;13.56;100.00
11190;BME280;5651;50.926;4.718;2022-10-16T04:52:28;101020.03;;;13.54;100.00
11190;BME280;5651;50.926;4.718;2022-10-16T04:54:54;101028.63;;;13.62;100.00
11190;BME280;5651;50.926;4.718;2022-10-16T04:57:20;101039.25;;;13.53;100.00
11190;BME280;5651;50.926;4.718;2022-10-16T04:59:46;101049.59;;;13.62;100.00
11190;BME280;5651;50.926;4.718;2022-10-16T05:02:12;101042.78;;;13.49;100.00
11190;BME280;5651;50.926;4.718;2022-10-16T05:04:38;101034.00;;;13.53;100.00
11190;BME280;5651;50.926;4.718;2022-10-16T05:07:04;101048.88;;;13.50;100.00
11190;BME280;5651;50.926;4.718;2022-10-16T05:09:29;101045.47;;;13.43;100.00
11190;BME280;5651;50.926;4.718;2022-10-16T05:11:55;101053.38;;;13.38;100.00
11190;BME280;5651;50.926;4.718;2022-10-16T05:14:21;101048.16;;;13.38;100.00
11190;BME280;5651;50.926;4.718;2022-10-16T05:16:46;101056.88;;;13.39;100.00
11190;BME280;5651;50.926;4.718;2022-10-16T05:19:13;101057.81;;;13.31;100.00
11190;BME280;5651;50.926;4.718;2022-10-16T05:21:39;101063.94;;;13.30;100.00
11190;BME280;5651;50.926;4.718;2022-10-16T05:24:05;101073.59;;;13.25;100.00
11190;BME280;5651;50.926;4.718;2022-10-16T05:26:30;101079.63;;;13.30;100.00
11190;BME280;5651;50.926;4.718;2022-10-16T05:28:56;101082.19;;;13.34;100.00
11190;BME280;5651;50.926;4.718;2022-10-16T05:31:22;101076.22;;;13.24;100.00
11190;BME280;5651;50.926;4.718;2022-10-16T05:33:48;101084.91;;;13.26;100.00
11190;BME280;5651;50.926;4.718;2022-10-16T05:36:14;101081.47;;;13.22;100.00
11190;BME280;5651;50.926;4.718;2022-10-16T05:38:39;101082.34;;;13.21;100.00
11190;BME280;5651;50.926;4.718;2022-10-16T05:41:05;101084.94;;;13.23;100.00
11190;BME280;5651;50.926;4.718;2022-10-16T05:43:32;101084.94;;;13.23;100.00
11190;BME280;5651;50.926;4.718;2022-10-16T05:46:03;101085.84;;;13.20;100.00
11190;BME280;5651;50.926;4.718;2022-10-16T05:48:37;101087.59;;;13.21;100.00
11190;BME280;5651;50.926;4.718;2022-10-16T05:51:05;101097.19;;;13.19;100.00
11190;BME280;5651;50.926;4.718;2022-10-16T05:53:33;101090.25;;;13.16;100.00
11190;BME280;5651;50.926;4.718;2022-10-16T05:55:59;101087.59;;;13.18;100.00
11190;BME280;5651;50.926;4.718;2022-10-16T05:58:31;101091.16;;;13.17;100.00
11190;BME280;5651;50.926;4.718;2022-10-16T06:01:00;101093.81;;;13.12;100.00
11190;BME280;5651;50.926;4.718;2022-10-16T06:03:27;101094.72;;;13.08;100.00
11190;BME280;5651;50.926;4.718;2022-10-16T06:05:53;101101.69;;;13.08;100.00
11190;BME280;5651;50.926;4.718;2022-10-16T06:08:21;101112.19;;;13.06;100.00
11190;BME280;5651;50.926;4.718;2022-10-16T06:10:47;101112.06;;;13.17;100.00
11190;BME280;5651;50.926;4.718;2022-10-16T06:13:14;101113.91;;;13.09;100.00
11190;BME280;5651;50.926;4.718;2022-10-16T06:15:41;101116.53;;;13.06;100.00
11190;BME280;5651;50.926;4.718;2022-10-16T06:18:08;101120.03;;;13.05;100.00
11190;BME280;5651;50.926;4.718;2022-10-16T06:20:35;101118.34;;;13.00;100.00
11190;BME280;5651;50.926;4.718;2022-10-16T06:23:01;101120.13;;;12.97;100.00
11190;BME280;5651;50.926;4.718;2022-10-16T06:25:27;101121.03;;;12.94;100.00
11190;BME280;5651;50.926;4.718;2022-10-16T06:27:52;101134.00;;;13.05;100.00
11190;BME280;5651;50.926;4.718;2022-10-16T06:30:18;101131.28;;;13.13;100.00
11190;BME280;5651;50.926;4.718;2022-10-16T06:32:44;101138.19;;;13.20;100.00
11190;BME280;5651;50.926;4.718;2022-10-16T06:35:09;101126.88;;;13.18;100.00
11190;BME280;5651;50.926;4.718;2022-10-16T06:37:35;101130.50;;;13.05;100.00
11190;BME280;5651;50.926;4.718;2022-10-16T06:40:01;101140.16;;;12.99;100.00
11190;BME280;5651;50.926;4.718;2022-10-16T06:42:29;101143.50;;;13.14;100.00
11190;BME280;5651;50.926;4.718;2022-10-16T06:44:55;101141.84;;;13.05;100.00
11190;BME280;5651;50.926;4.718;2022-10-16T06:47:21;101146.22;;;13.03;100.00
11190;BME280;5651;50.926;4.718;2022-10-16T06:49:47;101159.28;;;13.06;100.00
11190;BME280;5651;50.926;4.718;2022-10-16T06:52:13;101166.19;;;13.12;100.00
11190;BME280;5651;50.926;4.718;2022-10-16T06:54:38;101171.31;;;13.21;100.00
11190;BME280;5651;50.926;4.718;2022-10-16T06:57:04;101174.81;;;13.20;100.00
11190;BME280;5651;50.926;4.718;2022-10-16T06:59:30;101183.56;;;13.19;100.00
11190;BME280;5651;50.926;4.718;2022-10-16T07:01:56;101182.63;;;13.28;100.00
11190;BME280;5651;50.926;4.718;2022-10-16T07:04:22;101192.19;;;13.30;100.00
11190;BME280;5651;50.926;4.718;2022-10-16T07:06:48;101202.59;;;13.38;100.00
11190;BME280;5651;50.926;4.718;2022-10-16T07:09:14;101200.78;;;13.45;100.00
11190;BME280;5651;50.926;4.718;2022-10-16T07:11:40;101208.66;;;13.43;100.00
11190;BME280;5651;50.926;4.718;2022-10-16T07:14:17;101217.22;;;13.58;100.00
11190;BME280;5651;50.926;4.718;2022-10-16T07:16:43;101212.91;;;13.55;100.00
11190;BME280;5651;50.926;4.718;2022-10-16T07:19:09;101221.59;;;13.59;100.00
11190;BME280;5651;50.926;4.718;2022-10-16T07:21:37;101231.13;;;13.63;100.00
11190;BME280;5651;50.926;4.718;2022-10-16T07:24:11;101236.38;;;13.63;100.00
11190;BME280;5651;50.926;4.718;2022-10-16T07:26:38;101234.56;;;13.67;100.00
11190;BME280;5651;50.926;4.718;2022-10-16T07:29:06;101238.84;;;13.75;100.00
11190;BME280;5651;50.926;4.718;2022-10-16T07:31:33;101244.06;;;13.75;100.00
11190;BME280;5651;50.926;4.718;2022-10-16T07:33:59;101249.34;;;13.74;100.00
11190;BME280;5651;50.926;4.718;2022-10-16T07:36:26;101265.06;;;13.74;100.00
11190;BME280;5651;50.926;4.718;2022-10-16T07:38:52;101262.47;;;13.72;100.00
11190;BME280;5651;50.926;4.718;2022-10-16T07:41:19;101274.66;;;13.72;100.00
11190;BME280;5651;50.926;4.718;2022-10-16T07:43:46;101269.47;;;13.69;100.00
11190;BME280;5651;50.926;4.718;2022-10-16T07:46:13;101273.75;;;13.77;100.00
11190;BME280;5651;50.926;4.718;2022-10-16T07:48:40;101278.78;;;13.94;100.00
11190;BME280;5651;50.926;4.718;2022-10-16T07:51:07;101286.66;;;13.96;100.00
11190;BME280;5651;50.926;4.718;2022-10-16T07:53:33;101290.94;;;14.03;100.00
11190;BME280;5651;50.926;4.718;2022-10-16T07:56:04;101289.00;;;14.16;100.00
11190;BME280;5651;50.926;4.718;2022-10-16T07:58:30;101299.38;;;14.25;100.00
11190;BME280;5651;50.926;4.718;2022-10-16T08:00:57;101293.16;;;14.33;100.00
11190;BME280;5651;50.926;4.718;2022-10-16T08:03:24;101305.38;;;14.35;100.00
11190;BME280;5651;50.926;4.718;2022-10-16T08:05:50;101306.97;;;14.49;100.00
11190;BME280;5651;50.926;4.718;2022-10-16T08:08:18;101302.53;;;14.52;100.00
11190;BME280;5651;50.926;4.718;2022-10-16T08:10:44;101303.41;;;14.53;100.00
11190;BME280;5651;50.926;4.718;2022-10-16T08:13:10;101312.94;;;14.58;100.00
11190;BME280;5651;50.926;4.718;2022-10-16T08:15:36;101318.88;;;14.74;100.00
11190;BME280;5651;50.926;4.718;2022-10-16T08:18:03;101309.22;;;14.77;100.00
11190;BME280;5651;50.926;4.718;2022-10-16T08:20:30;101319.59;;;14.84;100.00
11190;BME280;5651;50.926;4.718;2022-10-16T08:22:57;101316.91;;;14.91;100.00
11190;BME280;5651;50.926;4.718;2022-10-16T08:25:23;101315.00;;;15.00;100.00
11190;BME280;5651;50.926;4.718;2022-10-16T08:27:50;101312.22;;;15.10;100.00
11190;BME280;5651;50.926;4.718;2022-10-16T08:30:17;101323.59;;;15.10;100.00
11190;BME280;5651;50.926;4.718;2022-10-16T08:32:43;101322.63;;;15.16;100.00
11190;BME280;5651;50.926;4.718;2022-10-16T08:35:10;101324.28;;;15.21;100.00
11190;BME280;5651;50.926;4.718;2022-10-16T08:37:37;101322.44;;;15.27;100.00
11190;BME280;5651;50.926;4.718;2022-10-16T08:40:05;101320.56;;;15.33;100.00
11190;BME280;5651;50.926;4.718;2022-10-16T08:42:51;101323.88;;;15.48;100.00
11190;BME280;5651;50.926;4.718;2022-10-16T08:46:30;101320.22;;;15.55;100.00
11190;BME280;5651;50.926;4.718;2022-10-16T08:50:55;101314.97;;;15.55;100.00
11190;BME280;5651;50.926;4.718;2022-10-16T08:53:26;101323.59;;;15.62;100.00
11190;BME280;5651;50.926;4.718;2022-10-16T08:55:54;101322.59;;;15.71;100.00
11190;BME280;5651;50.926;4.718;2022-10-16T08:58:22;101333.78;;;15.80;100.00
11190;BME280;5651;50.926;4.718;2022-10-16T09:01:01;101337.09;;;15.92;99.31
11190;BME280;5651;50.926;4.718;2022-10-16T09:11:44;101328.03;;;16.08;99.29
11190;BME280;5651;50.926;4.718;2022-10-16T09:14:28;101325.16;;;16.19;97.81
11190;BME280;5651;50.926;4.718;2022-10-16T09:19:51;101335.56;;;16.27;97.69
11190;BME280;5651;50.926;4.718;2022-10-16T09:22:21;101335.47;;;16.30;96.78
11190;BME280;5651;50.926;4.718;2022-10-16T09:24:50;101332.88;;;16.28;95.69
11190;BME280;5651;50.926;4.718;2022-10-16T09:27:16;101338.19;;;16.27;96.49
11190;BME280;5651;50.926;4.718;2022-10-16T09:29:42;101345.84;;;16.36;96.13
11190;BME280;5651;50.926;4.718;2022-10-16T09:32:12;101355.13;;;16.56;97.04
11190;BME280;5651;50.926;4.718;2022-10-16T09:34:43;101356.06;;;16.52;95.22
11190;BME280;5651;50.926;4.718;2022-10-16T09:37:13;101356.09;;;16.50;93.82
11190;BME280;5651;50.926;4.718;2022-10-16T09:39:56;101358.59;;;16.56;96.29
11190;BME280;5651;50.926;4.718;2022-10-16T09:42:31;101356.63;;;16.68;94.68
11190;BME280;5651;50.926;4.718;2022-10-16T09:44:58;101360.03;;;16.71;95.81
11190;BME280;5651;50.926;4.718;2022-10-16T09:47:26;101359.19;;;16.69;93.60
11190;BME280;5651;50.926;4.718;2022-10-16T09:52:21;101372.16;;;16.78;94.57
11190;BME280;5651;50.926;4.718;2022-10-16T09:54:53;101367.78;;;16.77;95.02
11190;BME280;5651;50.926;4.718;2022-10-16T09:57:20;101369.44;;;16.82;94.69
11190;BME280;5651;50.926;4.718;2022-10-16T09:59:57;101363.97;;;16.91;95.59
11190;BME280;5651;50.926;4.718;2022-10-16T10:02:30;101366.19;;;17.11;95.28
11190;BME280;5651;50.926;4.718;2022-10-16T10:04:56;101369.81;;;17.07;92.79
11190;BME280;5651;50.926;4.718;2022-10-16T10:07:37;101362.81;;;17.04;93.57
11190;BME280;5651;50.926;4.718;2022-10-16T10:10:06;101368.00;;;17.09;94.62
11190;BME280;5651;50.926;4.718;2022-10-16T10:12:45;101365.34;;;17.09;94.70
11190;BME280;5651;50.926;4.718;2022-10-16T10:15:11;101377.09;;;17.32;95.74
11190;BME280;5651;50.926;4.718;2022-10-16T10:17:54;101382.38;;;17.33;94.68
11190;BME280;5651;50.926;4.718;2022-10-16T10:20:27;101383.16;;;17.35;95.25
11190;BME280;5651;50.926;4.718;2022-10-16T10:22:53;101384.16;;;17.31;91.37
11190;BME280;5651;50.926;4.718;2022-10-16T10:31:03;101390.97;;;17.74;89.65
11190;BME280;5651;50.926;4.718;2022-10-16T10:33:37;101383.19;;;17.70;90.90
11190;BME280;5651;50.926;4.718;2022-10-16T10:36:27;101380.88;;;17.90;88.07
11190;BME280;5651;50.926;4.718;2022-10-16T10:39:17;101380.38;;;17.78;86.68
11190;BME280;5651;50.926;4.718;2022-10-16T10:42:04;101377.34;;;17.93;88.43
11190;BME280;5651;50.926;4.718;2022-10-16T10:49:57;101379.31;;;18.18;88.41
11190;BME280;5651;50.926;4.718;2022-10-16T10:55:37;101378.63;;;18.43;86.05
11190;BME280;5651;50.926;4.718;2022-10-16T11:01:11;101384.75;;;18.73;85.52
11190;BME280;5651;50.926;4.718;2022-10-16T11:06:33;101386.00;;;19.20;79.03
11190;BME280;5651;50.926;4.718;2022-10-16T11:09:01;101381.16;;;19.06;81.79
11190;BME280;5651;50.926;4.718;2022-10-16T11:16:42;101379.25;;;19.38;80.21
11190;BME280;5651;50.926;4.718;2022-10-16T11:19:36;101383.47;;;19.16;79.33
11190;BME280;5651;50.926;4.718;2022-10-16T11:22:19;101397.56;;;19.44;80.07
11190;BME280;5651;50.926;4.718;2022-10-16T11:27:40;101390.88;;;19.59;80.67
11190;BME280;5651;50.926;4.718;2022-10-16T11:30:41;101392.69;;;19.84;78.95
11190;BME280;5651;50.926;4.718;2022-10-16T11:38:36;101381.56;;;21.40;74.08
11190;BME280;5651;50.926;4.718;2022-10-16T11:47:29;101370.81;;;21.86;66.43
11190;BME280;5651;50.926;4.718;2022-10-16T11:50:06;101369.81;;;21.68;67.76
11190;BME280;5651;50.926;4.718;2022-10-16T11:52:40;101366.38;;;22.26;71.27
11190;BME280;5651;50.926;4.718;2022-10-16T11:55:21;101376.56;;;22.75;66.78
11190;BME280;5651;50.926;4.718;2022-10-16T11:58:03;101370.81;;;23.02;67.60
11190;BME280;5651;50.926;4.718;2022-10-16T12:08:13;101379.19;;;21.97;67.40
11190;BME280;5651;50.926;4.718;2022-10-16T12:10:43;101388.34;;;22.09;66.93
11190;BME280;5651;50.926;4.718;2022-10-16T12:18:31;101371.78;;;20.98;69.20
11190;BME280;5651;50.926;4.718;2022-10-16T12:20:58;101382.00;;;20.85;69.18
11190;BME280;5651;50.926;4.718;2022-10-16T12:23:30;101375.66;;;20.65;69.87
11190;BME280;5651;50.926;4.718;2022-10-16T12:25:57;101388.41;;;20.79;72.24
11190;BME280;5651;50.926;4.718;2022-10-16T12:28:32;101385.06;;;20.74;71.18
11190;BME280;5651;50.926;4.718;2022-10-16T12:31:03;101387.34;;;20.83;71.34
11190;BME280;5651;50.926;4.718;2022-10-16T12:33:33;101382.50;;;20.95;73.17
11190;BME280;5651;50.926;4.718;2022-10-16T12:36:03;101388.84;;;20.90;71.83
11190;BME280;5651;50.926;4.718;2022-10-16T12:38:37;101381.53;;;20.97;70.68
11190;BME280;5651;50.926;4.718;2022-10-16T12:41:07;101377.56;;;20.85;71.36
11190;BME280;5651;50.926;4.718;2022-10-16T12:43:38;101396.59;;;20.73;69.40
11190;BME280;5651;50.926;4.718;2022-10-16T12:48:34;101392.97;;;20.98;71.79
11190;BME280;5651;50.926;4.718;2022-10-16T12:51:24;101391.25;;;21.19;69.06
11190;BME280;5651;50.926;4.718;2022-10-16T12:54:14;101390.44;;;21.39;71.97
11190;BME280;5651;50.926;4.718;2022-10-16T12:56:50;101400.91;;;21.42;68.54
11190;BME280;5651;50.926;4.718;2022-10-16T12:59:43;101395.75;;;21.17;68.59
11190;BME280;5651;50.926;4.718;2022-10-16T13:10:04;101404.91;;;21.30;70.45
11190;BME280;5651;50.926;4.718;2022-10-16T13:12:47;101402.63;;;21.43;70.00
11190;BME280;5651;50.926;4.718;2022-10-16T13:15:51;101402.22;;;20.87;69.69
11190;BME280;5651;50.926;4.718;2022-10-16T13:24:07;101403.00;;;20.89;73.48
11190;BME280;5651;50.926;4.718;2022-10-16T13:29:05;101401.34;;;21.31;72.12
11190;BME280;5651;50.926;4.718;2022-10-16T13:31:31;101401.91;;;21.40;69.41
11190;BME280;5651;50.926;4.718;2022-10-16T13:34:00;101401.09;;;21.37;71.43
11190;BME280;5651;50.926;4.718;2022-10-16T13:36:34;101395.78;;;21.37;70.57
11190;BME280;5651;50.926;4.718;2022-10-16T13:39:25;101394.75;;;21.19;68.52
11190;BME280;5651;50.926;4.718;2022-10-16T13:44:26;101403.56;;;20.98;68.69
11190;BME280;5651;50.926;4.718;2022-10-16T13:46:59;101392.59;;;21.07;70.44
11190;BME280;5651;50.926;4.718;2022-10-16T13:49:25;101384.84;;;21.02;68.99
11190;BME280;5651;50.926;4.718;2022-10-16T13:51:56;101390.81;;;21.30;72.85
11190;BME280;5651;50.926;4.718;2022-10-16T13:54:23;101395.56;;;21.44;71.90
11190;BME280;5651;50.926;4.718;2022-10-16T13:56:49;101388.59;;;21.41;69.31
11190;BME280;5651;50.926;4.718;2022-10-16T13:59:26;101379.97;;;21.36;70.98
11190;BME280;5651;50.926;4.718;2022-10-16T14:01:53;101366.47;;;21.20;70.06
11190;BME280;5651;50.926;4.718;2022-10-16T14:04:21;101369.44;;;21.12;69.28
11190;BME280;5651;50.926;4.718;2022-10-16T14:06:50;101376.59;;;21.10;70.71
11190;BME280;5651;50.926;4.718;2022-10-16T14:09:29;101382.13;;;21.04;69.95
11190;BME280;5651;50.926;4.718;2022-10-16T14:11:59;101373.50;;;20.99;69.87
11190;BME280;5651;50.926;4.718;2022-10-16T14:14:27;101382.34;;;20.99;71.35
11190;BME280;5651;50.926;4.718;2022-10-16T14:16:55;101387.41;;;21.04;71.53
11190;BME280;5651;50.926;4.718;2022-10-16T14:19:24;101383.66;;;21.10;72.46
11190;BME280;5651;50.926;4.718;2022-10-16T14:21:51;101390.88;;;21.06;72.24
11190;BME280;5651;50.926;4.718;2022-10-16T14:24:32;101382.38;;;20.98;71.79
11190;BME280;5651;50.926;4.718;2022-10-16T14:26:59;101389.09;;;20.84;71.24
11190;BME280;5651;50.926;4.718;2022-10-16T14:29:28;101385.25;;;20.68;71.29
11190;BME280;5651;50.926;4.718;2022-10-16T14:32:02;101391.63;;;20.64;71.76
11190;BME280;5651;50.926;4.718;2022-10-16T14:34:38;101387.88;;;20.46;70.51
11190;BME280;5651;50.926;4.718;2022-10-16T14:37:09;101382.25;;;20.31;71.23
11190;BME280;5651;50.926;4.718;2022-10-16T14:39:38;101378.84;;;20.27;71.73
11190;BME280;5651;50.926;4.718;2022-10-16T14:42:14;101384.13;;;20.27;72.28
11190;BME280;5651;50.926;4.718;2022-10-16T14:44:41;101376.19;;;20.27;73.57
11190;BME280;5651;50.926;4.718;2022-10-16T14:47:10;101377.81;;;20.32;73.72
11190;BME280;5651;50.926;4.718;2022-10-16T14:49:38;101368.81;;;20.36;73.41
11190;BME280;5651;50.926;4.718;2022-10-16T14:52:09;101371.19;;;20.43;74.39
11190;BME280;5651;50.926;4.718;2022-10-16T14:54:35;101376.06;;;20.54;74.21